createdAt,value
2022-11-21T00:01:00.038Z,0.50
2022-11-21T00:03:27.534Z,0.10
2022-11-21T00:05:55.062Z,0.70
2022-11-21T00:08:23.886Z,0.63
2022-11-21T00:10:51.318Z,0.30
2022-11-21T00:13:20.912Z,0.77
2022-11-21T00:15:49.124Z,0.40
2022-11-21T00:18:16.978Z,0.85
2022-11-21T00:20:44.923Z,0.70
2022-11-21T00:23:13.078Z,0.65
2022-11-21T00:25:41.889Z,0.13
2022-11-21T00:28:09.343Z,0.43
2022-11-21T00:30:36.994Z,0.63
2022-11-21T00:33:04.474Z,0.10
2022-11-21T00:35:32.740Z,1.02
2022-11-21T00:38:00.180Z,1.10
2022-11-21T00:40:27.623Z,1.30
2022-11-21T00:42:56.482Z,1.23
2022-11-21T00:45:24.674Z,0.75
2022-11-21T00:47:52.376Z,0.15
2022-11-21T00:50:19.880Z,0.47
2022-11-21T00:52:47.332Z,0.73
2022-11-21T00:55:14.948Z,1.27
2022-11-21T00:57:42.406Z,1.25
2022-11-21T01:00:12.592Z,1.15
2022-11-21T01:02:40.015Z,0.50
2022-11-21T01:05:08.102Z,0.90
2022-11-21T01:07:35.677Z,1.02
2022-11-21T01:10:03.639Z,0.60
2022-11-21T01:12:32.496Z,0.20
2022-11-21T01:14:59.923Z,0.60
2022-11-21T01:17:28.697Z,0.80
2022-11-21T01:19:56.142Z,0.85
2022-11-21T01:22:23.658Z,0.80
2022-11-21T01:24:51.094Z,1.08
2022-11-21T01:27:18.598Z,0.65
2022-11-21T01:29:46.010Z,0.70
2022-11-21T01:32:13.457Z,0.38
2022-11-21T01:34:42.235Z,0.73
2022-11-21T01:37:09.728Z,0.47
2022-11-21T01:39:37.168Z,0.90
2022-11-21T01:42:04.799Z,0.43
2022-11-21T01:44:48.930Z,0.43
2022-11-21T01:47:16.451Z,0.28
2022-11-21T01:49:46.733Z,0.30
2022-11-21T01:52:18.216Z,0.93
2022-11-21T01:54:49.091Z,0.82
2022-11-21T01:57:20.229Z,0.75
2022-11-21T01:59:51.839Z,0.32
2022-11-21T02:02:22.088Z,0.30
2022-11-21T02:04:53.052Z,0.10
2022-11-21T02:07:23.740Z,1.02
2022-11-21T02:09:56.862Z,0.60
2022-11-21T02:12:29.781Z,0.80
2022-11-21T02:14:59.257Z,0.55
2022-11-21T02:17:27.288Z,0.60
2022-11-21T02:19:58.566Z,0.52
2022-11-21T02:22:37.603Z,1.30
2022-11-21T02:25:09.346Z,1.27
2022-11-21T02:27:37.040Z,0.35
2022-11-21T02:30:06.447Z,0.60
2022-11-21T02:32:36.472Z,0.63
2022-11-21T02:35:04.299Z,0.50
2022-11-21T02:37:32.983Z,0.45
2022-11-21T02:40:04.547Z,0.73
2022-11-21T02:42:37.863Z,0.28
2022-11-21T02:45:19.455Z,0.57
2022-11-21T02:47:50.401Z,0.70
2022-11-21T02:50:24.023Z,0.45
2022-11-21T02:52:51.509Z,0.35
2022-11-21T02:55:18.985Z,0.20
2022-11-21T02:57:48.023Z,0.60
2022-11-21T03:00:15.992Z,0.70
2022-11-21T03:02:43.475Z,0.57
2022-11-21T03:05:15.340Z,0.43
2022-11-21T03:07:43.422Z,0.50
2022-11-21T03:10:11.382Z,0.45
2022-11-21T03:12:39.527Z,0.82
2022-11-21T03:15:11.206Z,0.60
2022-11-21T03:17:38.687Z,0.20
2022-11-21T03:20:07.487Z,0.60
2022-11-21T03:22:35.303Z,0.82
2022-11-21T03:25:02.743Z,0.80
2022-11-21T03:27:30.205Z,0.68
2022-11-21T03:29:57.644Z,0.90
2022-11-21T03:32:26.398Z,0.85
2022-11-21T03:34:53.824Z,0.30
2022-11-21T03:37:21.288Z,0.30
2022-11-21T03:39:48.724Z,0.93
2022-11-21T03:42:16.168Z,0.80
2022-11-21T03:44:43.636Z,0.60
2022-11-21T03:47:11.052Z,0.50
2022-11-21T03:49:39.853Z,0.73
2022-11-21T03:52:07.299Z,0.35
2022-11-21T03:54:34.789Z,0.75
2022-11-21T03:57:02.215Z,0.47
2022-11-21T03:59:29.643Z,0.95
2022-11-21T04:01:57.109Z,0.13
2022-11-21T04:04:24.683Z,0.43
2022-11-21T04:06:53.678Z,0.98
2022-11-21T04:09:21.123Z,0.80
2022-11-21T04:11:48.612Z,0.55
2022-11-21T04:14:16.811Z,0.45
2022-11-21T04:16:44.282Z,0.55
2022-11-21T04:19:11.732Z,0.20
2022-11-21T04:21:39.165Z,0.63
2022-11-21T04:24:08.944Z,0.60
2022-11-21T04:26:36.374Z,0.10
2022-11-21T04:29:03.807Z,0.55
2022-11-21T04:31:31.231Z,0.45
2022-11-21T04:33:58.666Z,0.38
2022-11-21T04:36:26.163Z,0.28
2022-11-21T04:38:53.800Z,0.22
2022-11-21T04:41:22.613Z,0.55
2022-11-21T04:43:50.164Z,0.20
2022-11-21T04:46:17.608Z,0.47
2022-11-21T04:48:45.047Z,0.52
2022-11-21T04:51:12.490Z,0.20
2022-11-21T04:53:49.835Z,0.35
2022-11-21T04:56:17.281Z,0.40
2022-11-21T04:58:46.392Z,0.57
2022-11-21T05:01:13.914Z,0.43
2022-11-21T05:03:41.431Z,0.55
2022-11-21T05:06:09.255Z,0.80
2022-11-21T05:08:36.744Z,0.40
2022-11-21T05:11:21.743Z,0.55
2022-11-21T05:13:50.556Z,0.70
2022-11-21T05:16:18.000Z,0.30
2022-11-21T05:18:45.465Z,0.30
2022-11-21T05:21:12.925Z,0.30
2022-11-21T05:23:40.342Z,0.13
2022-11-21T05:26:07.770Z,0.25
2022-11-21T05:28:35.246Z,0.50
2022-11-21T05:31:04.035Z,0.40
2022-11-21T05:33:31.479Z,0.52
2022-11-21T05:35:59.017Z,0.50
2022-11-21T05:38:26.468Z,0.43
2022-11-21T05:40:53.956Z,0.20
2022-11-21T05:43:39.305Z,0.28
2022-11-21T05:46:08.353Z,0.30
2022-11-21T05:48:36.754Z,0.10
2022-11-21T05:51:04.731Z,0.17
2022-11-21T05:53:32.232Z,0.40
2022-11-21T05:56:03.946Z,0.40
2022-11-21T05:58:31.407Z,0.47
2022-11-21T06:01:00.038Z,0.35
2022-11-21T06:03:30.977Z,0.00
2022-11-21T06:06:04.419Z,0.10
2022-11-21T06:08:33.834Z,0.20
2022-11-21T06:11:01.610Z,0.20
2022-11-21T06:13:29.552Z,0.52
2022-11-21T06:16:00.875Z,0.28
2022-11-21T06:18:32.251Z,0.40
2022-11-21T06:21:02.655Z,0.20
2022-11-21T06:23:30.208Z,0.20
2022-11-21T06:25:59.053Z,0.28
2022-11-21T06:28:27.241Z,0.20
2022-11-21T06:30:54.721Z,0.25
2022-11-21T06:33:22.312Z,0.10
2022-11-21T06:35:51.198Z,0.68
2022-11-21T06:40:47.413Z,0.50
2022-11-21T06:43:14.891Z,0.10
2022-11-21T06:45:42.342Z,0.38
2022-11-21T06:48:09.822Z,0.50
2022-11-21T06:50:38.546Z,0.20
2022-11-21T06:53:07.459Z,0.20
2022-11-21T06:55:34.983Z,0.40
2022-11-21T06:58:02.403Z,1.13
2022-11-21T07:00:30.001Z,0.63
2022-11-21T07:03:03.186Z,0.60
2022-11-21T07:05:31.159Z,0.93
2022-11-21T07:07:59.631Z,0.77
2022-11-21T07:10:28.688Z,0.70
2022-11-21T07:13:16.265Z,0.88
2022-11-21T07:15:44.032Z,0.75
2022-11-21T07:18:11.586Z,0.63
2022-11-21T07:20:39.233Z,0.35
2022-11-21T07:23:07.116Z,0.63
2022-11-21T07:25:36.932Z,0.60
2022-11-21T07:28:05.350Z,0.43
2022-11-21T07:30:32.941Z,0.68
2022-11-21T07:33:03.101Z,0.60
2022-11-21T07:35:30.651Z,0.00
2022-11-21T07:37:58.446Z,0.82
2022-11-21T07:40:26.358Z,0.28
2022-11-21T07:43:01.075Z,0.85
2022-11-21T07:45:28.503Z,0.63
2022-11-21T07:47:58.842Z,0.40
2022-11-21T07:50:26.648Z,0.52
2022-11-21T07:52:58.601Z,0.60
2022-11-21T07:55:26.336Z,0.77
2022-11-21T07:58:03.037Z,0.38
2022-11-21T08:00:32.117Z,0.85
2022-11-21T08:02:59.582Z,0.47
2022-11-21T08:05:27.392Z,0.90
2022-11-21T08:07:55.034Z,1.15
2022-11-21T08:10:22.528Z,0.70
2022-11-21T08:12:50.021Z,0.88
2022-11-21T08:15:19.064Z,0.75
2022-11-21T08:17:46.576Z,0.77
2022-11-21T08:20:14.176Z,1.00
2022-11-21T08:22:42.038Z,0.50
2022-11-21T08:25:11.128Z,1.33
2022-11-21T08:27:39.898Z,0.70
2022-11-21T08:30:09.021Z,0.47
2022-11-21T08:32:37.818Z,0.90
2022-11-21T08:35:05.984Z,0.80
2022-11-21T08:37:33.432Z,1.50
2022-11-21T08:40:02.266Z,0.60
2022-11-21T08:42:29.724Z,1.17
2022-11-21T08:44:57.138Z,1.13
2022-11-21T08:47:24.660Z,0.55
2022-11-21T08:49:53.472Z,0.25
2022-11-21T08:52:20.969Z,0.10
2022-11-21T08:54:48.543Z,0.43
2022-11-21T08:57:15.986Z,0.50
2022-11-21T08:59:43.440Z,0.98
2022-11-21T09:02:12.296Z,0.73
2022-11-21T09:07:08.485Z,0.95
2022-11-21T09:12:03.720Z,0.77
2022-11-21T09:14:49.521Z,0.55
2022-11-21T09:17:35.240Z,1.08
2022-11-21T09:20:02.787Z,1.02
2022-11-21T09:22:31.702Z,0.52
2022-11-21T09:24:59.218Z,1.63
2022-11-21T09:27:26.783Z,0.65
2022-11-21T09:29:54.557Z,1.02
2022-11-21T09:32:22.094Z,0.43
2022-11-21T09:34:49.617Z,0.82
2022-11-21T09:37:17.087Z,1.95
2022-11-21T09:39:45.891Z,0.95
2022-11-21T09:42:35.037Z,1.90
2022-11-21T09:45:09.035Z,1.13
2022-11-21T09:47:38.951Z,0.60
2022-11-21T09:50:18.760Z,1.50
2022-11-21T09:52:52.795Z,1.10
2022-11-21T09:55:29.073Z,0.50
2022-11-21T09:58:01.341Z,1.33
2022-11-21T10:00:28.904Z,1.02
2022-11-21T10:02:57.580Z,1.48
2022-11-21T10:05:34.407Z,1.10
2022-11-21T10:08:12.551Z,0.13
2022-11-21T10:10:52.923Z,0.80
2022-11-21T10:13:38.175Z,0.95
2022-11-21T10:16:13.927Z,1.50
2022-11-21T10:19:22.807Z,1.25
2022-11-21T10:22:14.470Z,0.90
2022-11-21T10:24:48.428Z,0.35
2022-11-21T10:27:31.005Z,1.13
2022-11-21T10:30:03.354Z,0.65
2022-11-21T10:32:36.221Z,0.55
2022-11-21T10:35:14.021Z,0.55
2022-11-21T10:37:48.016Z,0.90
2022-11-21T10:40:24.660Z,1.08
2022-11-21T10:42:58.597Z,0.80
2022-11-21T10:45:25.526Z,0.60
2022-11-21T10:47:54.207Z,0.47
2022-11-21T10:50:34.471Z,1.17
2022-11-21T10:53:25.570Z,0.40
2022-11-21T10:56:01.247Z,0.80
2022-11-21T10:58:42.233Z,0.57
2022-11-21T11:01:21.014Z,0.35
2022-11-21T11:04:06.866Z,0.95
2022-11-21T11:06:36.504Z,1.35
2022-11-21T11:09:04.729Z,0.50
2022-11-21T11:11:32.195Z,0.50
2022-11-21T11:14:04.775Z,0.95
2022-11-21T11:16:37.326Z,0.43
2022-11-21T11:19:24.195Z,0.77
2022-11-21T11:21:56.063Z,1.20
2022-11-21T11:26:58.566Z,0.88
2022-11-21T11:29:30.305Z,0.85
2022-11-21T11:32:01.616Z,0.43
2022-11-21T11:34:39.788Z,0.77
2022-11-21T11:37:13.864Z,0.70
2022-11-21T11:39:48.097Z,0.70
2022-11-21T11:42:53.696Z,0.40
2022-11-21T11:46:05.359Z,0.80
2022-11-21T11:48:56.270Z,0.52
2022-11-21T11:51:27.901Z,0.75
2022-11-21T11:54:03.404Z,0.63
2022-11-21T11:56:34.088Z,0.45
2022-11-21T11:59:08.144Z,0.40
2022-11-21T12:01:42.226Z,0.13
2022-11-21T12:04:14.432Z,0.95
2022-11-21T12:09:43.350Z,1.30
2022-11-21T12:12:17.767Z,0.93
2022-11-21T12:15:16.344Z,1.02
2022-11-21T12:17:54.012Z,1.30
2022-11-21T12:20:24.034Z,0.90
2022-11-21T12:22:54.226Z,0.93
2022-11-21T12:25:28.540Z,1.25
2022-11-21T12:27:57.093Z,1.20
2022-11-21T12:30:47.930Z,0.25
2022-11-21T12:33:22.247Z,0.25
2022-11-21T12:36:18.305Z,0.63
2022-11-21T12:38:59.120Z,1.15
2022-11-21T12:41:50.675Z,0.50
2022-11-21T12:44:37.239Z,1.42
2022-11-21T12:47:18.850Z,1.10
2022-11-21T12:50:10.905Z,1.20
2022-11-21T12:53:00.115Z,1.40
2022-11-21T12:55:35.957Z,1.45
2022-11-21T12:58:13.426Z,0.80
2022-11-21T13:01:02.501Z,0.55
2022-11-21T13:03:51.077Z,0.93
2022-11-21T13:06:24.202Z,1.08
2022-11-21T13:08:53.775Z,0.32
2022-11-21T13:11:56.880Z,0.88
2022-11-21T13:14:30.767Z,1.00
2022-11-21T13:17:17.391Z,0.98
2022-11-21T13:19:52.756Z,1.05
2022-11-21T13:22:54.722Z,0.50
2022-11-21T13:25:48.162Z,0.40
2022-11-21T13:30:58.980Z,0.32
2022-11-21T13:33:48.224Z,0.70
2022-11-21T13:36:43.212Z,0.98
2022-11-21T13:39:37.112Z,0.98
2022-11-21T13:42:32.902Z,1.10
2022-11-21T13:45:21.433Z,0.73
2022-11-21T13:48:09.369Z,0.45
2022-11-21T13:51:02.433Z,0.73
2022-11-21T13:53:57.859Z,0.22
2022-11-21T13:56:36.871Z,0.73
2022-11-21T13:59:29.404Z,0.25
2022-11-21T14:02:14.379Z,0.35
2022-11-21T14:05:14.399Z,0.38
2022-11-21T14:07:44.590Z,0.65
2022-11-21T14:10:30.599Z,0.90
2022-11-21T14:13:01.263Z,0.45
2022-11-21T14:15:36.075Z,0.50
2022-11-21T14:18:04.063Z,0.85
2022-11-21T14:20:53.845Z,0.88
2022-11-21T14:23:23.531Z,0.32
2022-11-21T14:25:55.066Z,0.60
2022-11-21T14:28:26.678Z,0.95
2022-11-21T14:30:59.124Z,0.98
2022-11-21T14:33:32.964Z,1.15
2022-11-21T14:36:04.320Z,0.60
2022-11-21T14:38:36.294Z,0.50
2022-11-21T14:41:29.777Z,0.50
2022-11-21T14:44:22.133Z,0.40
2022-11-21T14:46:50.646Z,0.45
2022-11-21T14:49:24.438Z,0.68
2022-11-21T14:51:55.034Z,0.55
2022-11-21T14:54:25.399Z,0.60
2022-11-21T14:57:01.085Z,0.95
2022-11-21T14:59:33.514Z,0.70
2022-11-21T15:02:03.791Z,0.80
2022-11-21T15:04:34.159Z,1.10
2022-11-21T15:07:02.157Z,1.17
2022-11-21T15:10:26.875Z,1.25
2022-11-21T15:12:26.380Z,0.95
2022-11-21T15:15:00.032Z,1.00
2022-11-21T15:17:28.737Z,0.38
2022-11-21T15:20:17.883Z,0.60
2022-11-21T15:22:45.601Z,0.55
2022-11-21T15:25:19.105Z,0.30
2022-11-21T15:27:47.527Z,1.00
2022-11-21T15:30:26.235Z,0.80
2022-11-21T15:33:08.563Z,0.60
2022-11-21T15:35:51.168Z,0.90
2022-11-21T15:38:21.624Z,0.98
2022-11-21T15:41:16.264Z,0.70
2022-11-21T15:43:45.125Z,0.98
2022-11-21T15:46:19.311Z,1.40
2022-11-21T15:48:48.393Z,2.63
2022-11-21T15:51:16.183Z,2.17
2022-11-21T15:53:43.959Z,3.95
2022-11-21T15:56:18.297Z,3.35
2022-11-21T15:58:49.172Z,3.60
2022-11-21T16:01:20.161Z,3.00
2022-11-21T16:03:50.833Z,2.00
2022-11-21T16:06:19.147Z,2.47
2022-11-21T16:08:47.076Z,1.92
2022-11-21T16:11:18.612Z,1.20
2022-11-21T16:13:49.571Z,1.10
2022-11-21T16:16:18.902Z,1.33
2022-11-21T16:18:47.014Z,1.00
2022-11-21T16:21:15.130Z,1.13
2022-11-21T16:23:42.708Z,1.33
2022-11-21T16:26:11.708Z,1.17
2022-11-21T16:28:39.275Z,1.40
2022-11-21T16:31:07.127Z,0.93
2022-11-21T16:33:36.543Z,1.17
2022-11-21T16:36:04.065Z,1.10
2022-11-21T16:38:31.485Z,0.90
2022-11-21T16:41:00.471Z,0.90
2022-11-21T16:45:57.222Z,1.20
2022-11-21T16:48:24.790Z,0.80
2022-11-21T16:50:53.569Z,1.13
2022-11-21T16:53:20.987Z,1.15
2022-11-21T16:55:48.470Z,1.00
2022-11-21T16:58:15.911Z,0.80
2022-11-21T17:00:43.459Z,0.70
2022-11-21T17:03:11.000Z,0.90
2022-11-21T17:08:09.084Z,0.57
2022-11-21T17:10:36.530Z,1.05
2022-11-21T17:13:03.973Z,1.10
2022-11-21T17:15:31.411Z,0.57
2022-11-21T17:18:01.354Z,1.35
2022-11-21T17:20:28.784Z,1.17
2022-11-21T17:22:56.214Z,0.70
2022-11-21T17:25:25.077Z,1.20
2022-11-21T17:27:52.559Z,1.98
2022-11-21T17:30:19.976Z,2.08
2022-11-21T17:32:47.456Z,1.70
2022-11-21T17:35:15.289Z,0.90
2022-11-21T17:37:42.722Z,1.77
2022-11-21T17:40:12.018Z,0.90
2022-11-21T17:42:43.166Z,1.17
2022-11-21T17:45:11.351Z,1.30
2022-11-21T17:47:38.807Z,1.70
2022-11-21T17:50:06.918Z,1.80
2022-11-21T17:52:34.352Z,2.05
2022-11-21T17:55:02.023Z,2.55
2022-11-21T17:57:29.474Z,2.17
2022-11-21T17:59:58.248Z,2.30
2022-11-21T18:02:27.141Z,2.63
2022-11-21T18:04:54.802Z,2.45
2022-11-21T18:07:22.264Z,2.30
2022-11-21T18:09:49.761Z,2.13
2022-11-21T18:12:17.201Z,2.42
2022-11-21T18:14:44.648Z,3.03
2022-11-21T18:17:13.460Z,2.40
2022-11-21T18:19:41.131Z,3.10
2022-11-21T18:22:08.565Z,2.40
2022-11-21T18:24:36.023Z,2.13
2022-11-21T18:27:03.480Z,2.90
2022-11-21T18:29:37.930Z,3.15
2022-11-21T18:32:06.647Z,2.50
2022-11-21T18:34:35.480Z,3.13
2022-11-21T18:37:02.928Z,2.78
2022-11-21T18:39:30.705Z,2.28
2022-11-21T18:41:58.336Z,3.47
2022-11-21T18:44:25.767Z,8.45
2022-11-21T18:46:53.587Z,5.80
2022-11-21T18:49:21.023Z,3.67
2022-11-21T18:51:49.821Z,6.00
2022-11-21T18:54:17.367Z,5.80
2022-11-21T18:56:44.807Z,4.65
2022-11-21T18:59:12.239Z,5.13
2022-11-21T19:01:40.299Z,2.67
2022-11-21T19:04:08.521Z,3.28
2022-11-21T19:06:36.401Z,2.90
2022-11-21T19:09:05.285Z,3.40
2022-11-21T19:11:32.719Z,3.03
2022-11-21T19:14:00.735Z,2.97
2022-11-21T19:16:30.808Z,2.35
2022-11-21T19:24:16.563Z,2.00
2022-11-21T19:26:44.128Z,1.38
2022-11-21T19:29:12.769Z,2.25
2022-11-21T19:31:45.227Z,2.10
2022-11-21T19:34:13.104Z,1.92
2022-11-21T19:36:40.645Z,1.30
2022-11-21T19:39:08.822Z,2.13
2022-11-21T19:41:37.924Z,1.38
2022-11-21T19:44:05.535Z,2.58
2022-11-21T19:46:35.793Z,1.73
2022-11-21T19:49:04.031Z,1.70
2022-11-21T19:51:33.819Z,2.22
2022-11-21T19:54:02.971Z,2.63
2022-11-21T19:56:30.584Z,2.00
2022-11-21T19:58:59.383Z,2.13
2022-11-21T20:01:28.764Z,1.95
2022-11-21T20:03:57.884Z,2.47
2022-11-21T20:08:54.936Z,2.38
2022-11-21T20:13:51.148Z,1.35
2022-11-21T20:16:22.142Z,2.20
2022-11-21T20:18:50.263Z,3.03
2022-11-21T20:21:19.550Z,2.35
2022-11-21T20:23:47.649Z,2.22
2022-11-21T20:26:16.496Z,1.02
2022-11-21T20:28:44.112Z,2.17
2022-11-21T20:31:13.507Z,1.48
2022-11-21T20:33:43.957Z,2.03
2022-11-21T20:36:14.216Z,3.17
2022-11-21T20:38:42.334Z,3.35
2022-11-21T20:41:10.157Z,2.00
2022-11-21T20:44:24.533Z,2.28
2022-11-21T20:46:25.706Z,1.05
2022-11-21T20:48:56.173Z,2.35
2022-11-21T20:54:11.783Z,2.83
2022-11-21T20:56:43.857Z,2.45
2022-11-21T20:59:12.103Z,2.22
2022-11-21T21:01:39.654Z,0.55
2022-11-21T21:04:09.172Z,2.45
2022-11-21T21:06:37.482Z,1.80
2022-11-21T21:09:05.318Z,1.85
2022-11-21T21:14:20.324Z,2.67
2022-11-21T21:16:47.756Z,2.08
2022-11-21T21:19:16.958Z,1.80
2022-11-21T21:21:44.395Z,0.40
2022-11-21T21:24:12.355Z,1.73
2022-11-21T21:26:43.355Z,1.98
2022-11-21T21:29:12.355Z,2.05
2022-11-21T21:31:41.788Z,1.73
2022-11-21T21:34:12.905Z,1.75
2022-11-21T21:36:41.711Z,1.73
2022-11-21T21:39:09.150Z,2.17
2022-11-21T21:41:39.674Z,1.67
2022-11-21T21:44:07.244Z,1.73
2022-11-21T21:46:34.867Z,2.05
2022-11-21T21:49:02.380Z,2.20
2022-11-21T21:51:31.202Z,2.15
2022-11-21T21:54:00.896Z,1.88
2022-11-21T21:56:29.541Z,2.00
2022-11-21T21:58:58.252Z,1.95
2022-11-21T22:01:27.582Z,1.98
2022-11-21T22:03:56.979Z,2.45
2022-11-21T22:06:24.733Z,1.85
2022-11-21T22:08:52.690Z,1.50
2022-11-21T22:11:22.973Z,2.17
2022-11-21T22:13:54.083Z,1.60
2022-11-21T22:16:21.571Z,2.28
2022-11-21T22:18:49.410Z,1.63
2022-11-21T22:21:18.925Z,2.53
2022-11-21T22:24:17.232Z,1.73
2022-11-21T22:26:36.063Z,1.60
2022-11-21T22:29:03.607Z,2.60
2022-11-21T22:31:31.980Z,1.95
2022-11-21T22:33:59.556Z,1.90
2022-11-21T22:36:27.490Z,1.90
2022-11-21T22:38:55.481Z,1.67
2022-11-21T22:41:24.361Z,1.75
2022-11-21T22:43:54.919Z,4.78
2022-11-21T22:46:23.070Z,2.17
2022-11-21T22:48:50.691Z,2.42
2022-11-21T22:51:19.854Z,2.67
2022-11-21T22:53:47.631Z,2.50
2022-11-21T22:56:17.358Z,2.60
2022-11-21T22:58:45.659Z,1.90
2022-11-21T23:01:17.590Z,1.92
2022-11-21T23:03:45.738Z,1.38
2022-11-21T23:06:15.011Z,1.40
2022-11-21T23:08:42.680Z,1.80
2022-11-21T23:11:12.207Z,1.80
2022-11-21T23:13:42.516Z,2.20
2022-11-21T23:16:11.779Z,0.88
2022-11-21T23:18:41.211Z,1.63
2022-11-21T23:21:10.451Z,1.25
2022-11-21T23:23:38.116Z,1.92
2022-11-21T23:26:06.039Z,2.47
2022-11-21T23:28:34.486Z,2.08
2022-11-21T23:31:02.231Z,1.85
2022-11-21T23:33:29.816Z,2.53
2022-11-21T23:35:59.077Z,1.98
2022-11-21T23:38:26.523Z,1.80
2022-11-21T23:40:54.052Z,1.50
2022-11-21T23:43:21.511Z,1.02
2022-11-21T23:45:51.233Z,1.63
2022-11-21T23:48:19.000Z,1.30
2022-11-21T23:50:46.927Z,1.02
2022-11-21T23:53:15.740Z,1.73
2022-11-21T23:55:44.445Z,1.67
2022-11-21T23:58:12.114Z,1.60
